Welcome to our Virtual Airline
Sign-in:

Flight MFC37851

  • Submitted By: Georg Werderitsch
  • Departure Airport: Kodiak (PADQ)
  • Arrival Airport: Port Williams SPB (KPR)
  • Aircraft: DHC2 BEAVERA (N001MM-AM)
  • Flight Time: 00.25.43
  • Date Submitted: 2019/03/10
  • Route: STOP-OVER AT KITOI BAY SPB (KKB)
  • Status: Accepted
Flight Details
Gross Revenue:
(5 load / $ 48.00 per unit
$ 240.00
Fuel Cost:
(42.1841 fuel used @ 5.1 / unit)
$ 215.14

Additional Log Information:

View Log

FS[08:26] ----- Flight Opened -----
FS[08:26] Cigar Box - 1.1.4.0
FS[08:26] FS: FSX
FS[08:26] FSUIPC: v4,973
FS[08:26] Flight Number: MFC37851
FS[08:26] FS Aircraft: DHC-2A N001MM New Misty Amphibian
FS[08:26] FS Model: DHC2
FS[08:26] FS Type: DeHavilland
FS[08:26] Departure: PADQ
FS[08:26] Arrival: KPR
FS[08:26] Flight Level: 4500
FS[08:26] Flight Type: H
FS[08:26] Passengers: 5
FS[08:26] FOB: 570 lbs
FS[08:26] Gate: n/a
FS[08:26] NOTE: Parking Brake Ignored
FS[08:26] Crash Detection: Disabled
FS[08:26] Crash Detection Aircraft: Disabled
FS[08:26] Engines: 1 Piston
FS[08:26] NOTE: Boarding has started
FS[08:26] Autopilot: Engaged
FS[08:26] AGL: 6 ft
FS[08:26] AMSL: 78 ft
FS[08:26] Flaps: Position 1
FS[08:26] Light Data: Beacon ON
FS[08:26] Main Door Closed
FS[08:26] COM1: 128.30
FS[08:26] COM2: 127.80
FS[08:26] Transponder: 1200
FS[08:26] NAV1: 113.70
FS[08:26] NAV2: 110.60
FS[08:26] ADF1: 284.0
FS[08:26] ADF2: 240.0
FS[08:26] Navigation Mode: NAV
FS[08:26] Engine 1: Started
FS[08:26] Flaps: Position 2
FS[08:26] NOTE: Taxi started
FS[08:27] NOTE: ----- TAKE OFF -----
FS[08:27] GS: 69 knots
FS[08:27] TAS: 70 knots
FS[08:27] IAS: 69 knots
FS[08:27] VS: 23 fpm
FS[08:27] FOB: 569 lbs
FS[08:27] Heading: 61°
FS[08:27] Pitch: 6°
FS[08:27] Bank: -1°
FS[08:27] Aircraft Weight: 4339,21 lbs
FS[08:27] Nearest Airport: PADQ
FS[08:27] Distance: 0,11 miles
FS[08:27] Runway: 7 - PADQ
FS[08:27] Ground Surface: Asphalt
FS[08:27] Ground Condition: Normal
FS[08:27] NOTE: Weather Report
FS[08:27] Wind Heading: 339°
FS[08:27] Wind Speed: 10 knots
FS[08:27] OAT: 17° C
FS[08:27] TAT: 18° C
FS[08:27] Precipitation: None
FS[08:27] Dew Point: 11° C
FS[08:27] Visibility: 29 miles
FS[08:27] METAR: PADQ 100653Z AUTO 00000KT 10SM BKN024 BKN032 OVC048 04/01 A2879 RMK AO2 RAE01 SLP749 P0000 T00390011 TSNO
FS[08:27] NOTE: Climb started
FS[08:27] Flaps: Position 1
FS[08:27] GS: 69 knots
FS[08:27] TAS: 71 knots
FS[08:27] IAS: 70 knots
FS[08:27] VS: 821 fpm
FS[08:27] Landing Gear: Retracted
FS[08:27] GS: 71 knots
FS[08:27] TAS: 73 knots
FS[08:27] IAS: 72 knots
FS[08:27] VS: 907 fpm
FS[08:27] AGL: 72 ft
FS[08:27] AMSL: 144 ft
FS[08:27] View Mode: Virtual Cockpit
FS[08:28] Flaps: Position 0
FS[08:28] GS: 75 knots
FS[08:28] TAS: 87 knots
FS[08:28] IAS: 84 knots
FS[08:28] VS: 1100 fpm
FS[08:39] Flaps: Position 1
FS[08:39] GS: 101 knots
FS[08:39] TAS: 117 knots
FS[08:39] IAS: 115 knots
FS[08:39] VS: -629 fpm
FS[08:40] Flaps: Position 2
FS[08:40] GS: 71 knots
FS[08:40] TAS: 78 knots
FS[08:40] IAS: 77 knots
FS[08:40] VS: -402 fpm
FS[08:40] Flaps: Position 3
FS[08:40] GS: 68 knots
FS[08:40] TAS: 68 knots
FS[08:40] IAS: 68 knots
FS[08:40] VS: -390 fpm
FS[08:41] NOTE: ----- LANDED -----
FS[08:41] Landing Rate: -337,57 fpm
FS[08:41] GS: 66 knots
FS[08:41] TAS: 66 knots
FS[08:41] IAS: 65 knots
FS[08:41] VS: -336 fpm
FS[08:41] FOB: 513 lbs
FS[08:41] Heading: 256°
FS[08:41] Pitch: 1°
FS[08:41] Bank: 5°
FS[08:41] Aircraft Weight: 4283,99 lbs
FS[08:41] Nearest Airport: KKB
FS[08:41] Distance: 0,22 miles
FS[08:41] Runway: ???
FS[08:41] Ground Surface: Water
FS[08:41] Ground Condition: Normal
FS[08:41] NOTE: Weather Report
FS[08:41] Wind Heading: 345°
FS[08:41] Wind Speed: 10 knots
FS[08:41] OAT: 17° C
FS[08:41] TAT: 18° C
FS[08:41] Precipitation: None
FS[08:41] Dew Point: 11° C
FS[08:41] Visibility: 29 miles
FS[08:41] METAR: KPRB 100653Z AUTO 15003KT 10SM FEW016 BKN040 OVC060 08/07 A2995 RMK AO2 RAB03E51 SLP143 P0004 T00780072 $KPRC 100653Z AUTO 00000KT 10SM CLR 02/M04 A2992 RMK AO2 SLP109 T00171039 401061033KPRG 100715Z AUTO 25021G25KT 10SM OVC028 05/02 A2977 RMK AO2 T00520020KPRN 100656Z AUTO 21009KT 9SM OVC003 18/15 A3002 RMK AO2 SLP162 T01780150KPRO 100715Z AUTO 30026G35KT 10SM OVC017 M01/M03 A2979 RMK AO2 T10121030KPRS 100715Z AUTO 00000KT 10SM CLR 18/M02 A2992 RMK AO2 T01801016KPRX 100656Z AUTO 02007KT 10SM CLR 13/03 A2995 RMK AO2 SLP156 T01280028
FS[08:41] View Mode: Virtual Cockpit
FS[08:41] Flaps: Position 0
FS[08:41] NOTE: Taxi started
FS[08:41] Engine 1: Stopped
FS[08:41] Engine 1: Started
FS[08:42] Flaps: Position 1
FS[08:42] Flaps: Position 0
FS[08:42] GS: 69 knots
FS[08:42] TAS: 75 knots
FS[08:42] IAS: 74 knots
FS[08:42] VS: 670 fpm
FS[08:42] View Mode: Virtual Cockpit
FS[08:51] Flaps: Position 1
FS[08:51] GS: 93 knots
FS[08:51] TAS: 103 knots
FS[08:51] IAS: 102 knots
FS[08:51] VS: -492 fpm
FS[08:52] Flaps: Position 2
FS[08:52] GS: 77 knots
FS[08:52] TAS: 87 knots
FS[08:52] IAS: 86 knots
FS[08:52] VS: -206 fpm
FS[08:52] NOTE: ----- LANDED -----
FS[08:52] Landing Rate: -433,69 fpm
FS[08:52] GS: 44 knots
FS[08:52] TAS: 58 knots
FS[08:52] IAS: 57 knots
FS[08:52] VS: -419 fpm
FS[08:52] FOB: 477 lbs
FS[08:52] Heading: 314°
FS[08:52] Pitch: 1°
FS[08:52] Bank: 0°
FS[08:52] Aircraft Weight: 4247,38 lbs
FS[08:52] Nearest Airport: KPR
FS[08:52] Distance: 0,34 miles
FS[08:52] Runway: ???
FS[08:52] Ground Surface: Water
FS[08:52] Ground Condition: Normal
FS[08:52] NOTE: Weather Report
FS[08:52] Wind Heading: 343°
FS[08:52] Wind Speed: 14 knots
FS[08:52] OAT: 17° C
FS[08:52] TAT: 18° C
FS[08:52] Precipitation: None
FS[08:52] Dew Point: 11° C
FS[08:52] Visibility: 29 miles
FS[08:52] METAR: KPRB 100653Z AUTO 15003KT 10SM FEW016 BKN040 OVC060 08/07 A2995 RMK AO2 RAB03E51 SLP143 P0004 T00780072 $KPRC 100653Z AUTO 00000KT 10SM CLR 02/M04 A2992 RMK AO2 SLP109 T00171039 401061033KPRG 100715Z AUTO 25021G25KT 10SM OVC028 05/02 A2977 RMK AO2 T00520020KPRN 100656Z AUTO 21009KT 9SM OVC003 18/15 A3002 RMK AO2 SLP162 T01780150KPRO 100715Z AUTO 30026G35KT 10SM OVC017 M01/M03 A2979 RMK AO2 T10121030KPRS 100715Z AUTO 00000KT 10SM CLR 18/M02 A2992 RMK AO2 T01801016KPRX 100656Z AUTO 02007KT 10SM CLR 13/03 A2995 RMK AO2 SLP156 T01280028
FS[08:52] View Mode: Virtual Cockpit
FS[08:52] Flaps: Position 1
FS[08:52] Flaps: Position 0
FS[08:53] Engine 1: Stopped
FS[08:53] Gate: n/a
FS[08:53] NOTE: Flight Completed
FS[08:53] FS Aircraft: DHC-2A N001MM New Misty Amphibian
FS[08:53] FS Model: DHC2
FS[08:53] FS Type: DeHavilland
FS[08:53] FOB: 477 lbs
FS[08:53] Fuel Used: 93 lbs
FS[08:53] Flight Time: 00:25:43
FS[08:53] Flight Time (Dawn): 00:00:00
FS[08:53] Flight Time (Day): 00:25:43
FS[08:53] Flight Time (Dusk): 00:00:00
FS[08:53] Flight Time (Night): 00:00:00
FS[08:53] Total Landings: 2
FS[08:53] MaxSim Rate: 0x
FS[08:53] Cigar Box - 1.1.4.0
FS[08:53] ----- Flight Closed -----

Route Map